Time;durP1;ratioP1;P1;durP2;ratioP2;P2;SDS_P1;SDS_P2;PMS_P1;PMS_P2;Temp;Humidity;BMP_temperature;BMP_pressure;BME280_temperature;BME280_humidity;BME280_pressure;Samples;Min_cycle;Max_cycle;Signal;HPM_P1;HPM_P2
2022/12/20 00:01:22;;;;;;;9.13;4.18;;;9.10;99.90;;;;;;4984965;28;20058;-72
2022/12/20 00:03:52;;;;;;;10.45;4.53;;;9.10;99.90;;;;;;4988954;28;20459;-72
2022/12/20 00:06:18;;;;;;;10.20;3.88;;;9.10;99.90;;;;;;4988859;28;20413;-71
2022/12/20 00:08:44;;;;;;;8.32;4.32;;;9.10;99.90;;;;;;4987721;28;20050;-72
2022/12/20 00:11:10;;;;;;;8.55;4.50;;;9.10;99.90;;;;;;4988485;28;20054;-75
2022/12/20 00:13:36;;;;;;;7.95;4.05;;;9.50;99.90;;;;;;4988807;28;20125;-72
2022/12/20 00:16:17;;;;;;;10.20;4.30;;;9.50;99.90;;;;;;4988628;28;20180;-73
2022/12/20 00:18:44;;;;;;;10.38;4.20;;;9.50;99.90;;;;;;4988610;28;20050;-73
2022/12/20 00:21:11;;;;;;;8.43;4.25;;;9.10;99.90;;;;;;4988736;28;20058;-77
2022/12/20 00:23:38;;;;;;;6.65;3.63;;;9.10;99.90;;;;;;4988328;28;20047;-74
2022/12/20 00:26:06;;;;;;;7.35;3.97;;;9.20;99.90;;;;;;4987396;28;20101;-73
2022/12/20 00:28:33;;;;;;;7.28;3.78;;;9.20;99.90;;;;;;4988753;28;20046;-72
2022/12/20 00:31:00;;;;;;;8.10;4.00;;;9.10;99.90;;;;;;4988754;28;20123;-72
2022/12/20 00:33:26;;;;;;;7.30;3.72;;;9.10;99.90;;;;;;4988417;28;20034;-73
2022/12/20 00:35:53;;;;;;;8.77;3.63;;;9.10;99.90;;;;;;4988753;28;20497;-73
2022/12/20 00:38:18;;;;;;;11.23;4.03;;;9.10;99.90;;;;;;4987332;28;20054;-72
2022/12/20 00:40:44;;;;;;;6.65;4.10;;;9.10;99.90;;;;;;4987507;28;20069;-73
2022/12/20 00:43:10;;;;;;;10.50;3.72;;;9.00;99.90;;;;;;4988117;28;20042;-73
2022/12/20 00:45:35;;;;;;;9.80;3.85;;;9.20;99.90;;;;;;4988416;28;20054;-74
2022/12/20 00:48:01;;;;;;;9.80;3.28;;;9.00;99.90;;;;;;4988297;28;20046;-72
2022/12/20 00:50:26;;;;;;;7.63;3.88;;;9.30;99.90;;;;;;4988397;28;20472;-73
2022/12/20 00:52:52;;;;;;;8.77;4.05;;;9.00;99.90;;;;;;4988334;28;20038;-72
2022/12/20 00:55:18;;;;;;;6.03;3.50;;;8.90;99.90;;;;;;4988047;28;20050;-78
2022/12/20 00:57:43;;;;;;;8.88;4.18;;;9.00;99.90;;;;;;4988072;28;20052;-74
2022/12/20 01:00:10;;;;;;;10.60;3.90;;;8.90;99.90;;;;;;4988170;28;20050;-73
2022/12/20 01:02:36;;;;;;;6.45;3.17;;;9.00;99.90;;;;;;4987660;28;20054;-73
2022/12/20 01:05:01;;;;;;;5.63;3.53;;;9.00;99.90;;;;;;4987044;28;20415;-73
2022/12/20 01:07:27;;;;;;;10.65;3.90;;;9.00;99.90;;;;;;4988700;28;20085;-73
2022/12/20 01:09:53;;;;;;;8.30;3.72;;;9.00;99.90;;;;;;4988162;28;20058;-74
2022/12/20 01:12:18;;;;;;;8.45;3.78;;;9.00;99.90;;;;;;4987358;28;20054;-73
2022/12/20 01:14:44;;;;;;;6.72;3.15;;;9.00;99.90;;;;;;4987979;28;20057;-73
2022/12/20 01:17:10;;;;;;;10.45;3.90;;;9.00;99.90;;;;;;4986946;28;20056;-77
2022/12/20 01:19:35;;;;;;;8.25;3.58;;;9.30;99.90;;;;;;4987592;28;20054;-77
2022/12/20 01:22:01;;;;;;;10.32;3.67;;;9.00;99.90;;;;;;4987476;28;20100;-72
2022/12/20 01:24:26;;;;;;;6.10;3.15;;;9.10;99.90;;;;;;4987998;28;20082;-74
2022/12/20 01:26:52;;;;;;;5.63;3.00;;;9.10;99.90;;;;;;4987715;28;20767;-72
2022/12/20 01:29:18;;;;;;;11.38;3.60;;;9.10;99.90;;;;;;5018847;28;20556;-73
2022/12/20 01:31:43;;;;;;;8.73;3.35;;;9.10;99.90;;;;;;4987584;28;20050;-72
2022/12/20 01:34:09;;;;;;;5.90;3.40;;;9.10;99.90;;;;;;4970243;28;20228;-73
2022/12/20 01:36:38;;;;;;;6.00;3.55;;;9.10;99.90;;;;;;4987543;28;20122;-72
2022/12/20 01:39:08;;;;;;;8.43;2.90;;;9.10;99.90;;;;;;4987507;28;20058;-73
2022/12/20 01:41:35;;;;;;;6.75;3.28;;;9.10;99.90;;;;;;4986945;28;20057;-74
2022/12/20 01:44:02;;;;;;;4.82;3.15;;;9.10;99.90;;;;;;4987643;28;20049;-72
2022/12/20 01:46:30;;;;;;;5.50;3.15;;;9.60;99.90;;;;;;4987376;28;20493;-74
2022/12/20 01:49:10;;;;;;;6.57;3.15;;;9.10;99.90;;;;;;4987600;28;20050;-72
2022/12/20 01:51:41;;;;;;;5.05;3.08;;;9.10;99.90;;;;;;4988752;28;20160;-73
2022/12/20 01:54:21;;;;;;;6.03;3.30;;;9.20;99.90;;;;;;4991050;28;20061;-72
2022/12/20 01:57:00;;;;;;;6.72;3.45;;;9.10;99.90;;;;;;4989373;28;20057;-72
2022/12/20 01:59:27;;;;;;;7.97;2.88;;;9.10;99.90;;;;;;4990382;28;20058;-73
2022/12/20 02:02:00;;;;;;;4.57;2.65;;;9.10;99.90;;;;;;4990537;28;20050;-75
2022/12/20 02:04:26;;;;;;;5.72;3.50;;;9.10;99.90;;;;;;4991026;28;20038;-79
2022/12/20 02:06:52;;;;;;;8.48;4.03;;;9.10;99.90;;;;;;4990921;28;20509;-75
2022/12/20 02:09:17;;;;;;;8.23;3.50;;;9.00;99.90;;;;;;4990660;28;20065;-74
2022/12/20 02:12:06;;;;;;;8.18;3.30;;;9.00;99.90;;;;;;4989795;28;20129;-75
2022/12/20 02:14:52;;;;;;;5.80;3.08;;;9.60;99.90;;;;;;5022456;28;20056;-73
2022/12/20 02:17:47;;;;;;;6.05;2.90;;;9.00;99.90;;;;;;4990789;28;20083;-73
2022/12/20 02:20:37;;;;;;;6.07;3.20;;;9.00;99.90;;;;;;4988956;28;20054;-72
2022/12/20 02:23:41;;;;;;;6.45;3.17;;;9.00;99.90;;;;;;4990424;28;20060;-72
2022/12/20 02:26:38;;;;;;;6.85;3.00;;;9.00;99.90;;;;;;4989468;28;20058;-73
2022/12/20 02:29:32;;;;;;;6.25;3.17;;;9.00;99.90;;;;;;4990024;28;20065;-72
2022/12/20 02:32:15;;;;;;;6.83;3.30;;;9.00;99.90;;;;;;4984365;28;20091;-72
2022/12/20 02:34:42;;;;;;;7.90;3.30;;;8.90;99.90;;;;;;4971073;28;20626;-71
2022/12/20 02:37:09;;;;;;;5.35;2.90;;;8.90;99.90;;;;;;4971128;28;20389;-72
2022/12/20 02:39:37;;;;;;;6.95;3.33;;;9.00;99.90;;;;;;4970604;28;20516;-72
2022/12/20 02:42:07;;;;;;;7.50;3.10;;;8.90;99.90;;;;;;4989890;28;20137;-73
2022/12/20 02:47:39;;;;;;;7.97;3.30;;;8.90;99.90;;;;;;5049869;28;20167;-76
2022/12/20 02:50:07;;;;;;;8.52;3.05;;;8.90;99.90;;;;;;5049766;28;20109;-77
2022/12/20 02:52:34;;;;;;;6.03;2.92;;;8.90;99.90;;;;;;5049388;28;20052;-75
2022/12/20 02:55:01;;;;;;;5.78;3.38;;;9.00;99.90;;;;;;5049851;28;20060;-73
2022/12/20 02:57:50;;;;;;;9.55;3.58;;;9.00;99.90;;;;;;5049582;28;20065;-76
2022/12/20 03:00:20;;;;;;;6.13;3.78;;;9.00;99.90;;;;;;5049136;28;20044;-75
2022/12/20 03:05:33;;;;;;;10.52;3.72;;;9.00;99.90;;;;;;5049270;28;20098;-76
2022/12/20 03:07:59;;;;;;;10.50;4.13;;;8.90;99.90;;;;;;5049335;28;20041;-73
2022/12/20 03:10:25;;;;;;;7.15;3.40;;;9.00;99.90;;;;;;5049424;28;20415;-76
2022/12/20 03:12:51;;;;;;;6.75;3.40;;;8.90;99.90;;;;;;5049056;28;20436;-77
2022/12/20 03:15:16;;;;;;;8.20;3.72;;;8.90;99.90;;;;;;5049321;28;20052;-74
2022/12/20 03:17:42;;;;;;;7.90;3.42;;;8.90;99.90;;;;;;5048820;28;20056;-73
2022/12/20 03:20:10;;;;;;;8.00;4.00;;;8.90;99.90;;;;;;5031709;28;20049;-76
2022/12/20 03:22:36;;;;;;;6.35;3.25;;;8.90;99.90;;;;;;5032504;28;20050;-73
2022/12/20 03:25:02;;;;;;;8.05;3.85;;;8.90;99.90;;;;;;4989427;28;20111;-76
2022/12/20 03:27:28;;;;;;;6.18;3.45;;;8.90;99.90;;;;;;4989630;28;20393;-75
2022/12/20 03:29:54;;;;;;;9.63;3.58;;;8.90;99.90;;;;;;4988505;28;20054;-73
2022/12/20 03:32:20;;;;;;;7.50;3.60;;;9.20;99.90;;;;;;4989058;28;20042;-72
2022/12/20 03:34:46;;;;;;;5.07;3.20;;;9.00;99.90;;;;;;4989566;28;20405;-75
2022/12/20 03:37:12;;;;;;;6.82;3.67;;;9.20;99.90;;;;;;4988694;28;20050;-77
2022/12/20 03:39:37;;;;;;;7.40;3.45;;;9.00;99.90;;;;;;4988823;28;20434;-73
2022/12/20 03:42:03;;;;;;;6.50;3.42;;;9.00;99.90;;;;;;4989391;28;20048;-73
2022/12/20 03:44:29;;;;;;;5.97;3.40;;;9.00;99.90;;;;;;4989032;28;20091;-74
2022/12/20 03:46:54;;;;;;;7.90;3.38;;;9.00;99.90;;;;;;4989149;28;20684;-73
2022/12/20 03:49:20;;;;;;;7.22;4.30;;;9.00;99.90;;;;;;4987412;28;20043;-72
2022/12/20 03:51:45;;;;;;;5.60;3.40;;;9.00;99.90;;;;;;4987748;28;20497;-77
2022/12/20 03:54:11;;;;;;;9.90;3.65;;;9.00;99.90;;;;;;4988933;28;20133;-73
2022/12/20 03:56:36;;;;;;;7.93;3.85;;;9.00;99.90;;;;;;4987859;28;20062;-73
2022/12/20 03:59:03;;;;;;;7.63;3.35;;;9.00;99.90;;;;;;4988454;28;20708;-73
2022/12/20 04:01:29;;;;;;;8.75;3.80;;;9.00;99.90;;;;;;4987727;28;20050;-74
2022/12/20 04:03:55;;;;;;;6.47;3.67;;;9.00;99.90;;;;;;4989243;28;20053;-71
2022/12/20 04:06:22;;;;;;;6.13;3.65;;;9.00;99.90;;;;;;4987418;28;20082;-76
2022/12/20 04:08:49;;;;;;;8.15;3.50;;;9.00;99.90;;;;;;4988380;28;20046;-73
2022/12/20 04:11:15;;;;;;;10.38;4.25;;;9.10;99.90;;;;;;4988773;28;20046;-75
2022/12/20 04:13:41;;;;;;;6.20;3.67;;;9.10;99.90;;;;;;4987522;28;20099;-74
2022/12/20 04:16:07;;;;;;;6.18;3.40;;;9.10;99.90;;;;;;4988203;28;20054;-75
2022/12/20 04:18:33;;;;;;;8.10;3.95;;;9.10;99.90;;;;;;4988416;28;20045;-75
2022/12/20 04:21:00;;;;;;;7.95;3.80;;;9.10;99.90;;;;;;4986960;28;20089;-74
2022/12/20 04:23:25;;;;;;;9.52;3.60;;;9.10;99.90;;;;;;4986967;28;20061;-73
2022/12/20 04:25:51;;;;;;;9.60;4.53;;;9.20;99.90;;;;;;4988419;28;20050;-74
2022/12/20 04:28:17;;;;;;;7.28;3.67;;;9.20;99.90;;;;;;4988109;28;20046;-73
2022/12/20 04:30:42;;;;;;;10.40;4.20;;;9.20;99.90;;;;;;4987742;28;20038;-75
2022/12/20 04:33:08;;;;;;;6.40;3.90;;;9.90;99.90;;;;;;4988836;28;20050;-74
2022/12/20 04:35:34;;;;;;;8.55;4.13;;;9.20;99.90;;;;;;4988581;28;20054;-75
2022/12/20 04:37:59;;;;;;;8.98;3.80;;;9.30;99.90;;;;;;4987548;28;20066;-73
2022/12/20 04:40:25;;;;;;;6.60;3.97;;;9.30;99.90;;;;;;4986373;28;20065;-76
2022/12/20 04:42:51;;;;;;;7.57;4.07;;;9.30;99.90;;;;;;4987205;28;20437;-73
2022/12/20 04:45:16;;;;;;;8.10;4.00;;;9.30;99.90;;;;;;4987885;28;20057;-73
2022/12/20 04:47:42;;;;;;;7.75;3.92;;;9.20;99.90;;;;;;4988203;28;20125;-74
2022/12/20 04:50:08;;;;;;;6.88;4.00;;;9.30;99.90;;;;;;4986574;28;20094;-74
2022/12/20 04:55:17;;;;;;;9.60;4.15;;;9.30;99.90;;;;;;4969028;28;20390;-74
2022/12/20 04:57:43;;;;;;;7.38;3.90;;;9.30;99.90;;;;;;5000153;28;20116;-73
2022/12/20 05:00:09;;;;;;;8.07;3.85;;;9.50;99.90;;;;;;4982384;28;20138;-77
2022/12/20 05:02:35;;;;;;;14.05;3.88;;;9.40;99.90;;;;;;4987612;28;20145;-74
2022/12/20 05:05:00;;;;;;;11.15;4.03;;;9.40;99.90;;;;;;4988505;28;20560;-72
2022/12/20 05:07:26;;;;;;;6.63;3.72;;;9.40;99.90;;;;;;4988041;28;20042;-72
2022/12/20 05:09:52;;;;;;;7.22;3.95;;;9.50;99.90;;;;;;4987968;28;20986;-72
2022/12/20 05:12:17;;;;;;;7.78;4.10;;;10.20;99.90;;;;;;4987747;28;20081;-73
2022/12/20 05:14:43;;;;;;;8.98;4.10;;;9.50;99.90;;;;;;4987959;28;20072;-74
2022/12/20 05:17:08;;;;;;;6.57;4.05;;;9.50;99.90;;;;;;4987740;28;20397;-74
2022/12/20 05:19:34;;;;;;;7.57;3.72;;;9.50;99.90;;;;;;4987789;28;20057;-73
2022/12/20 05:27:29;;;;;;;7.85;4.00;;;9.80;99.90;;;;;;4986372;28;20089;-73
2022/12/20 05:29:55;;;;;;;8.98;3.70;;;9.80;99.90;;;;;;4986594;28;20057;-74
2022/12/20 05:32:20;;;;;;;6.18;3.45;;;9.60;99.90;;;;;;4987649;28;20409;-75
2022/12/20 05:34:46;;;;;;;6.15;3.60;;;9.60;99.90;;;;;;4987522;28;20042;-73
2022/12/20 05:37:11;;;;;;;7.55;3.65;;;9.60;99.90;;;;;;4986568;28;20133;-76
2022/12/20 05:39:37;;;;;;;8.77;3.72;;;9.60;99.90;;;;;;5005915;28;20506;-73
2022/12/20 05:42:03;;;;;;;7.97;3.75;;;9.60;99.90;;;;;;4988555;28;20046;-80
2022/12/20 05:44:29;;;;;;;7.90;3.78;;;9.60;99.90;;;;;;4987876;28;20071;-73
2022/12/20 05:46:54;;;;;;;6.43;3.45;;;9.60;99.90;;;;;;4987472;28;20559;-73
2022/12/20 05:49:20;;;;;;;9.32;4.05;;;9.60;99.90;;;;;;4985854;28;20050;-73
2022/12/20 05:51:45;;;;;;;6.65;3.28;;;9.60;99.90;;;;;;4987505;28;20496;-73
2022/12/20 05:54:11;;;;;;;8.48;3.67;;;9.60;99.90;;;;;;4987221;28;20057;-73
2022/12/20 05:56:37;;;;;;;6.65;3.17;;;9.60;99.90;;;;;;4987073;28;20042;-74
2022/12/20 05:59:02;;;;;;;6.25;3.78;;;9.70;99.90;;;;;;4985786;28;20043;-74
2022/12/20 06:01:28;;;;;;;7.32;3.42;;;9.70;99.90;;;;;;4987162;28;20080;-73
2022/12/20 06:03:53;;;;;;;8.45;3.40;;;9.70;99.90;;;;;;5019110;28;20050;-73
2022/12/20 06:06:19;;;;;;;5.63;3.03;;;9.70;99.90;;;;;;4987516;28;20100;-73
2022/12/20 06:08:45;;;;;;;5.38;2.88;;;9.70;99.90;;;;;;4986950;28;20043;-73
2022/12/20 06:11:10;;;;;;;6.65;3.20;;;9.70;99.90;;;;;;5018397;28;20058;-78
2022/12/20 06:13:36;;;;;;;4.82;3.00;;;9.70;99.90;;;;;;4986820;28;20043;-76
2022/12/20 06:16:01;;;;;;;9.55;3.15;;;9.70;99.90;;;;;;4987380;28;20046;-73
2022/12/20 06:18:27;;;;;;;7.40;3.30;;;9.70;99.90;;;;;;4986823;28;20053;-74
2022/12/20 06:20:53;;;;;;;5.75;3.25;;;9.70;99.90;;;;;;5001421;28;20770;-73
2022/12/20 06:23:19;;;;;;;6.78;3.72;;;9.70;99.90;;;;;;4987011;28;20179;-77
2022/12/20 06:25:45;;;;;;;8.57;3.00;;;9.70;99.90;;;;;;4987184;28;20404;-73
2022/12/20 06:28:11;;;;;;;6.75;3.38;;;9.70;99.90;;;;;;4986916;28;20050;-73
2022/12/20 06:30:36;;;;;;;10.13;3.55;;;9.70;99.90;;;;;;4986706;28;20049;-72
2022/12/20 06:33:03;;;;;;;6.25;3.22;;;9.80;99.90;;;;;;4986934;28;20045;-73
2022/12/20 06:35:29;;;;;;;6.35;3.47;;;9.70;99.90;;;;;;4985818;28;20050;-73
2022/12/20 06:37:55;;;;;;;5.90;3.45;;;9.80;99.90;;;;;;4987520;28;20145;-74
2022/12/20 06:40:24;;;;;;;5.80;3.38;;;9.80;99.90;;;;;;4988674;28;20055;-73
2022/12/20 06:42:49;;;;;;;10.32;3.20;;;9.80;99.90;;;;;;4989984;28;20137;-75
2022/12/20 06:45:15;;;;;;;9.90;3.63;;;9.80;99.90;;;;;;4990059;28;20121;-73
2022/12/20 06:47:41;;;;;;;7.40;3.58;;;9.80;99.90;;;;;;4990269;28;20869;-76
2022/12/20 06:50:07;;;;;;;7.03;3.10;;;9.80;99.90;;;;;;4990201;28;20053;-74
2022/12/20 06:52:32;;;;;;;8.88;3.40;;;9.80;99.90;;;;;;4990014;28;20121;-71
2022/12/20 06:54:58;;;;;;;8.05;4.03;;;9.80;99.90;;;;;;4988620;28;20145;-75
2022/12/20 06:57:24;;;;;;;9.02;3.72;;;9.80;99.90;;;;;;4988863;28;20042;-73
2022/12/20 06:59:49;;;;;;;7.68;4.18;;;9.80;99.90;;;;;;4989878;28;20072;-77
2022/12/20 07:02:15;;;;;;;8.55;3.80;;;9.80;99.90;;;;;;4989679;28;20046;-73
2022/12/20 07:04:41;;;;;;;9.48;4.13;;;9.90;99.90;;;;;;4989777;28;20106;-73
2022/12/20 07:07:07;;;;;;;7.25;4.25;;;10.40;99.90;;;;;;4988853;28;20409;-76
2022/12/20 07:09:32;;;;;;;11.73;4.75;;;9.70;99.90;;;;;;4989903;28;20485;-73
2022/12/20 07:11:58;;;;;;;7.82;4.40;;;9.70;99.90;;;;;;4989978;28;20146;-73
2022/12/20 07:14:24;;;;;;;9.55;4.57;;;9.70;99.90;;;;;;4981083;28;20556;-76
2022/12/20 07:16:50;;;;;;;8.65;4.82;;;9.70;99.90;;;;;;4973943;28;20039;-75
2022/12/20 07:19:16;;;;;;;6.22;4.15;;;9.60;99.90;;;;;;4989477;28;20054;-82
2022/12/20 07:21:42;;;;;;;8.68;4.75;;;9.70;99.90;;;;;;4987877;28;20430;-73
2022/12/20 07:24:08;;;;;;;7.65;4.80;;;9.80;99.90;;;;;;4989054;28;20042;-73
2022/12/20 07:26:34;;;;;;;9.88;5.38;;;9.70;99.90;;;;;;4989590;28;20043;-76
2022/12/20 07:29:00;;;;;;;9.65;5.30;;;9.70;99.90;;;;;;4989909;28;20051;-73
2022/12/20 07:31:26;;;;;;;7.85;5.45;;;9.70;99.90;;;;;;4989616;28;20089;-75
2022/12/20 07:33:51;;;;;;;9.43;5.28;;;9.70;99.90;;;;;;4989544;28;20070;-73
2022/12/20 07:36:17;;;;;;;9.15;5.05;;;9.70;99.90;;;;;;4989188;28;20049;-72
2022/12/20 07:38:43;;;;;;;9.80;5.70;;;9.70;99.90;;;;;;5002344;28;20049;-72
2022/12/20 07:41:15;;;;;;;7.30;5.60;;;9.70;99.90;;;;;;4989193;28;20042;-72
2022/12/20 07:43:41;;;;;;;8.82;5.72;;;9.70;99.90;;;;;;4989311;28;20057;-76
2022/12/20 07:46:07;;;;;;;8.70;6.00;;;9.70;99.90;;;;;;4989168;28;20046;-75
2022/12/20 07:48:34;;;;;;;8.60;5.75;;;9.70;99.90;;;;;;4989405;28;20046;-73
2022/12/20 07:51:04;;;;;;;9.07;6.15;;;9.70;99.90;;;;;;4989267;28;20058;-73
2022/12/20 07:53:31;;;;;;;9.38;6.00;;;9.80;99.90;;;;;;4989405;28;20518;-82
2022/12/20 07:56:00;;;;;;;9.73;6.07;;;9.80;99.90;;;;;;5017540;28;20126;-71
2022/12/20 07:58:27;;;;;;;7.35;5.47;;;9.80;99.90;;;;;;4988666;28;20107;-74
2022/12/20 08:00:53;;;;;;;8.57;6.05;;;10.40;99.90;;;;;;4989112;28;20461;-72
2022/12/20 08:03:30;;;;;;;8.50;5.97;;;9.80;99.90;;;;;;4989405;28;20485;-75
2022/12/20 08:05:59;;;;;;;12.23;6.38;;;9.90;99.90;;;;;;4988874;28;20069;-72
2022/12/20 08:08:25;;;;;;;11.93;6.10;;;10.00;99.90;;;;;;4987467;28;20057;-73
2022/12/20 08:10:51;;;;;;;15.82;6.20;;;9.80;99.90;;;;;;4988642;28;20046;-73
2022/12/20 08:13:17;;;;;;;10.13;5.72;;;9.80;99.90;;;;;;4988924;28;20099;-75
2022/12/20 08:15:46;;;;;;;7.63;5.43;;;9.80;99.90;;;;;;4988827;28;20564;-73
2022/12/20 08:18:11;;;;;;;9.18;5.38;;;10.00;99.90;;;;;;4987617;28;20133;-74
2022/12/20 08:20:37;;;;;;;8.60;5.13;;;9.90;99.90;;;;;;4986913;28;20141;-72
2022/12/20 08:23:03;;;;;;;8.40;5.13;;;9.90;99.90;;;;;;4988762;28;20048;-74
2022/12/20 08:25:29;;;;;;;9.20;4.93;;;9.90;99.90;;;;;;4988867;28;20058;-74
2022/12/20 08:27:54;;;;;;;8.70;4.20;;;9.90;99.90;;;;;;4987629;28;20034;-72
2022/12/20 08:30:20;;;;;;;7.90;4.38;;;9.90;99.90;;;;;;4988442;28;20105;-72
2022/12/20 08:32:46;;;;;;;9.27;4.22;;;10.00;99.90;;;;;;4988746;28;20400;-73
2022/12/20 08:35:12;;;;;;;11.32;4.60;;;10.00;99.90;;;;;;4986306;28;20500;-72
2022/12/20 08:37:37;;;;;;;5.88;4.18;;;9.90;99.90;;;;;;5082909;28;20048;-73
2022/12/20 08:40:03;;;;;;;8.35;4.15;;;9.90;99.90;;;;;;5090864;28;20050;-78
2022/12/20 08:42:29;;;;;;;5.32;3.60;;;10.00;99.90;;;;;;5090792;28;20046;-74
2022/12/20 08:44:55;;;;;;;9.30;4.22;;;10.00;99.90;;;;;;5090454;28;20487;-77
2022/12/20 08:47:20;;;;;;;6.10;3.95;;;10.00;99.90;;;;;;5084726;28;20051;-76
2022/12/20 08:49:46;;;;;;;9.45;4.32;;;10.00;99.90;;;;;;4988196;28;20046;-77
2022/12/20 08:52:11;;;;;;;6.95;3.13;;;10.00;99.90;;;;;;4988466;28;20038;-74
2022/12/20 08:54:37;;;;;;;7.35;3.78;;;10.30;99.90;;;;;;4988406;28;20085;-73
2022/12/20 08:57:03;;;;;;;6.28;3.70;;;10.50;99.90;;;;;;4988319;28;20744;-73
2022/12/20 08:59:28;;;;;;;9.70;3.35;;;10.00;99.90;;;;;;4987388;28;20069;-74
2022/12/20 09:01:54;;;;;;;5.30;3.47;;;10.10;99.90;;;;;;4985553;28;20068;-74
2022/12/20 09:04:20;;;;;;;7.40;3.17;;;10.10;99.90;;;;;;4986810;28;20046;-74
2022/12/20 09:06:46;;;;;;;9.27;3.40;;;10.10;99.90;;;;;;4987204;28;20042;-73
2022/12/20 09:09:12;;;;;;;10.25;2.78;;;10.20;99.90;;;;;;4986460;28;20086;-72
2022/12/20 09:11:38;;;;;;;7.47;3.42;;;10.10;99.90;;;;;;4987515;28;20066;-75
2022/12/20 09:14:03;;;;;;;6.05;3.30;;;10.60;99.90;;;;;;4988093;28;20096;-71
2022/12/20 09:16:31;;;;;;;5.15;3.05;;;10.10;99.90;;;;;;4987776;28;20038;-74
2022/12/20 09:18:59;;;;;;;9.07;2.97;;;10.20;99.90;;;;;;4990763;28;20076;-71
2022/12/20 09:21:27;;;;;;;5.18;2.95;;;10.20;99.90;;;;;;4987362;28;20125;-71
2022/12/20 09:23:55;;;;;;;5.60;2.70;;;10.20;99.90;;;;;;4987639;28;20481;-72
2022/12/20 09:26:21;;;;;;;5.18;2.63;;;10.20;99.90;;;;;;4968918;28;20054;-76
2022/12/20 09:28:48;;;;;;;7.93;2.90;;;10.50;99.90;;;;;;4967084;28;20054;-75
2022/12/20 09:31:17;;;;;;;8.73;3.08;;;10.20;99.90;;;;;;4968719;28;20141;-71
2022/12/20 09:33:43;;;;;;;6.22;2.75;;;10.20;99.90;;;;;;4968662;28;20039;-71
2022/12/20 09:36:18;;;;;;;8.25;3.08;;;10.20;99.90;;;;;;4968356;28;20046;-72
2022/12/20 09:38:44;;;;;;;4.28;2.75;;;10.20;99.90;;;;;;4967423;28;20397;-82
2022/12/20 09:41:27;;;;;;;5.03;3.05;;;10.20;99.90;;;;;;4968764;28;20082;-72
2022/12/20 09:43:53;;;;;;;7.22;2.75;;;10.30;99.90;;;;;;5051427;28;20131;-74
2022/12/20 09:46:19;;;;;;;6.32;2.90;;;11.00;99.90;;;;;;4968465;28;20428;-81
2022/12/20 09:48:45;;;;;;;7.05;3.20;;;10.30;99.90;;;;;;4991192;28;20049;-72
2022/12/20 09:51:28;;;;;;;7.15;3.15;;;10.40;99.90;;;;;;5006966;28;20514;-73
2022/12/20 09:54:13;;;;;;;7.05;2.65;;;10.40;99.90;;;;;;5007309;28;20133;-72
2022/12/20 09:56:45;;;;;;;6.25;2.78;;;10.50;99.90;;;;;;4995465;28;20072;-74
2022/12/20 09:59:18;;;;;;;5.97;2.90;;;10.50;99.90;;;;;;4986517;28;20478;-75
2022/12/20 10:01:47;;;;;;;6.30;2.75;;;10.50;99.90;;;;;;4987335;28;20757;-72
2022/12/20 10:04:26;;;;;;;13.25;3.28;;;10.80;99.90;;;;;;4987753;28;20053;-72
2022/12/20 10:06:59;;;;;;;5.90;2.63;;;10.40;99.90;;;;;;4987473;28;20054;-72
2022/12/20 10:09:55;;;;;;;5.45;2.75;;;10.40;99.90;;;;;;4987426;28;20459;-73
2022/12/20 10:12:40;;;;;;;6.60;2.35;;;10.40;99.90;;;;;;4988996;28;20046;-81
2022/12/20 10:15:21;;;;;;;7.27;2.90;;;10.40;99.90;;;;;;4991073;28;20122;-82
2022/12/20 10:18:27;;;;;;;5.18;2.90;;;10.40;99.90;;;;;;5022596;28;20111;-75
2022/12/20 10:21:26;;;;;;;7.65;3.25;;;10.40;99.90;;;;;;4979592;28;20059;-72
2022/12/20 10:24:04;;;;;;;5.60;2.60;;;10.40;99.90;;;;;;4971399;28;20521;-75
2022/12/20 10:26:32;;;;;;;7.35;2.50;;;10.40;99.90;;;;;;4970416;28;20123;-71
2022/12/20 10:28:58;;;;;;;5.95;2.60;;;10.40;99.90;;;;;;4973278;28;20047;-72
2022/12/20 10:31:24;;;;;;;8.20;3.17;;;10.40;99.90;;;;;;4990754;28;20069;-73
2022/12/20 10:33:50;;;;;;;7.70;3.35;;;10.40;99.90;;;;;;4989340;28;20051;-72
2022/12/20 10:36:28;;;;;;;9.88;2.95;;;10.90;99.90;;;;;;4990366;28;20038;-72
2022/12/20 10:38:59;;;;;;;5.43;2.63;;;10.50;99.90;;;;;;4990316;28;20049;-72
2022/12/20 10:41:28;;;;;;;8.45;2.67;;;10.40;99.90;;;;;;4990057;28;20060;-72
2022/12/20 10:44:05;;;;;;;5.47;2.50;;;10.40;99.90;;;;;;4989907;28;20083;-72
2022/12/20 10:46:53;;;;;;;5.20;2.40;;;10.90;99.90;;;;;;4990437;28;20047;-72
2022/12/20 10:49:31;;;;;;;7.30;3.10;;;10.50;99.90;;;;;;4989899;28;20504;-74
2022/12/20 10:52:17;;;;;;;5.65;2.67;;;10.50;99.90;;;;;;4988966;28;20505;-74
2022/12/20 10:54:45;;;;;;;6.68;2.65;;;10.90;99.90;;;;;;4989843;28;20059;-72
2022/12/20 10:57:28;;;;;;;8.50;3.63;;;10.80;99.90;;;;;;4989180;28;20051;-73
2022/12/20 10:59:57;;;;;;;4.85;2.88;;;10.60;99.90;;;;;;4990094;28;20043;-72
2022/12/20 11:02:26;;;;;;;5.30;2.78;;;10.50;99.90;;;;;;5021433;28;20061;-73
2022/12/20 11:05:13;;;;;;;8.52;2.65;;;10.80;99.90;;;;;;4990215;28;20053;-72
2022/12/20 11:07:56;;;;;;;6.75;2.60;;;10.50;99.90;;;;;;4988498;28;20065;-75
2022/12/20 11:10:28;;;;;;;6.40;2.78;;;10.50;99.90;;;;;;4989986;28;20054;-78
2022/12/20 11:13:03;;;;;;;8.85;2.92;;;10.40;99.90;;;;;;4988704;28;20042;-72
2022/12/20 11:15:31;;;;;;;5.97;2.80;;;10.50;99.90;;;;;;4989772;28;20069;-72
2022/12/20 11:18:36;;;;;;;6.30;2.80;;;10.40;99.90;;;;;;4989434;28;20058;-73
2022/12/20 11:21:33;;;;;;;6.37;3.20;;;10.40;99.90;;;;;;4989705;28;20102;-73
2022/12/20 11:24:24;;;;;;;8.25;2.30;;;10.40;99.90;;;;;;5048454;28;20770;-72
2022/12/20 11:27:12;;;;;;;7.03;2.75;;;10.40;99.90;;;;;;5040605;28;20080;-71
2022/12/20 11:30:02;;;;;;;5.15;2.45;;;10.40;99.90;;;;;;5029689;28;20116;-72
2022/12/20 11:32:31;;;;;;;6.18;2.78;;;10.40;99.90;;;;;;5029620;28;20056;-73
2022/12/20 11:35:10;;;;;;;8.10;2.80;;;10.40;99.90;;;;;;5029406;28;20528;-72
2022/12/20 11:38:24;;;;;;;7.18;2.55;;;10.40;99.90;;;;;;5029505;28;20045;-73
2022/12/20 11:40:57;;;;;;;5.60;3.13;;;10.40;99.90;;;;;;4948398;29;20582;-75
2022/12/20 11:43:48;;;;;;;4.78;2.75;;;10.80;99.90;;;;;;4960921;28;20494;-73
2022/12/20 11:46:41;;;;;;;5.03;2.70;;;10.40;99.90;;;;;;4932036;29;20063;-77
2022/12/20 11:49:36;;;;;;;7.88;3.17;;;10.40;99.90;;;;;;4897209;29;20063;-77
2022/12/20 11:52:16;;;;;;;10.87;3.50;;;10.40;99.90;;;;;;4932097;29;20074;-72
2022/12/20 11:54:47;;;;;;;6.55;2.97;;;10.40;99.90;;;;;;4931532;29;20055;-77
2022/12/20 11:57:37;;;;;;;4.85;2.75;;;10.30;99.90;;;;;;4916223;29;20059;-74
2022/12/20 12:00:05;;;;;;;5.65;2.88;;;10.30;99.90;;;;;;4933222;28;20051;-73
2022/12/20 12:02:47;;;;;;;9.00;3.58;;;10.20;99.90;;;;;;4939046;29;20083;-74
2022/12/20 12:05:18;;;;;;;13.48;3.53;;;10.30;99.90;;;;;;4931963;29;20491;-73
2022/12/20 12:07:48;;;;;;;5.28;3.10;;;10.30;99.90;;;;;;4933747;29;20050;-73
2022/12/20 12:10:24;;;;;;;6.53;3.30;;;10.30;99.90;;;;;;4931387;29;20106;-74
2022/12/20 12:13:10;;;;;;;7.35;3.50;;;10.50;99.90;;;;;;4931565;29;20130;-72
2022/12/20 12:15:47;;;;;;;7.60;3.75;;;10.20;99.90;;;;;;4930896;28;20095;-74
2022/12/20 12:18:22;;;;;;;7.03;3.70;;;10.30;99.90;;;;;;4928666;28;20048;-73
2022/12/20 12:21:09;;;;;;;6.85;3.30;;;10.20;99.90;;;;;;4928208;29;20505;-73
2022/12/20 12:23:48;;;;;;;6.43;3.83;;;10.20;99.90;;;;;;4971138;28;20133;-78
2022/12/20 12:26:23;;;;;;;10.38;4.93;;;10.20;99.90;;;;;;4989108;28;20042;-73
2022/12/20 12:28:57;;;;;;;8.57;4.10;;;10.20;99.90;;;;;;4989043;28;20041;-73
2022/12/20 12:31:43;;;;;;;8.48;4.03;;;10.20;99.90;;;;;;4988584;28;20052;-73
2022/12/20 12:34:32;;;;;;;5.82;3.60;;;10.20;99.90;;;;;;4988234;28;20050;-73
2022/12/20 12:37:28;;;;;;;5.28;3.70;;;10.10;99.90;;;;;;4987960;28;20454;-73
2022/12/20 12:40:12;;;;;;;7.68;3.78;;;10.10;99.90;;;;;;4988448;28;20485;-72
2022/12/20 12:42:59;;;;;;;6.63;4.03;;;10.40;99.90;;;;;;4988934;28;20089;-72
2022/12/20 12:45:50;;;;;;;8.93;4.07;;;10.10;99.90;;;;;;4988027;28;20396;-74
2022/12/20 12:48:23;;;;;;;7.03;4.55;;;10.50;99.90;;;;;;4984421;28;20396;-72
2022/12/20 12:50:51;;;;;;;7.65;4.28;;;10.10;99.90;;;;;;4988635;28;20050;-73
2022/12/20 12:53:29;;;;;;;7.60;4.75;;;10.10;99.90;;;;;;4988580;28;20096;-73
2022/12/20 12:55:55;;;;;;;8.25;4.97;;;10.50;99.90;;;;;;4987549;28;20400;-78
2022/12/20 12:58:23;;;;;;;6.45;4.70;;;10.40;99.90;;;;;;4988648;28;20074;-73
2022/12/20 13:00:58;;;;;;;7.93;4.53;;;10.40;99.90;;;;;;4988165;28;20045;-73
2022/12/20 13:03:44;;;;;;;6.60;4.38;;;10.10;99.90;;;;;;4988060;28;20486;-74
2022/12/20 13:06:43;;;;;;;7.72;4.60;;;10.00;99.90;;;;;;4988437;28;20057;-80
2022/12/20 13:09:39;;;;;;;9.23;4.35;;;10.10;99.90;;;;;;4994553;28;20413;-73
2022/12/20 13:12:35;;;;;;;8.70;4.68;;;10.10;99.90;;;;;;5025477;28;20396;-76
2022/12/20 13:15:01;;;;;;;9.52;4.72;;;10.10;99.90;;;;;;5027345;28;20056;-77
2022/12/20 13:17:26;;;;;;;8.35;4.88;;;10.10;99.90;;;;;;5027555;28;20049;-75
2022/12/20 13:19:56;;;;;;;9.93;4.45;;;10.10;99.90;;;;;;5011000;28;20536;-75
2022/12/20 13:22:24;;;;;;;10.90;5.10;;;10.10;99.90;;;;;;5027361;28;20069;-75
2022/12/20 13:24:56;;;;;;;7.97;4.95;;;10.10;99.90;;;;;;5027403;28;20085;-76